createdAt,value
2022-11-23T00:00:14.295Z,1.50
2022-11-23T00:05:14.244Z,1.40
2022-11-23T00:10:14.188Z,1.40
2022-11-23T00:15:14.252Z,1.50
2022-11-23T00:20:14.078Z,1.30
2022-11-23T00:25:14.053Z,1.50
2022-11-23T05:00:26.374Z,1.50
2022-11-23T05:05:26.321Z,1.40
2022-11-23T05:10:26.238Z,1.00
2022-11-23T05:15:26.203Z,1.50
2022-11-23T05:20:26.151Z,1.30
2022-11-23T05:25:26.094Z,1.30
2022-11-23T05:30:26.039Z,1.40
2022-11-23T05:35:25.986Z,1.50
2022-11-23T05:40:26.100Z,1.20
2022-11-23T05:45:25.878Z,1.40
2022-11-23T05:50:25.826Z,0.90
2022-11-23T05:55:25.770Z,1.50
2022-11-23T06:00:25.741Z,1.50
2022-11-23T06:05:25.665Z,1.20
2022-11-23T06:10:25.619Z,1.40
2022-11-23T06:15:25.549Z,1.30
2022-11-23T06:20:25.639Z,1.40
2022-11-23T06:25:25.464Z,1.20
2022-11-23T06:30:25.382Z,1.30
2022-11-23T06:35:25.339Z,1.10
2022-11-23T06:40:25.307Z,1.30
2022-11-23T06:45:25.221Z,1.20
2022-11-23T06:50:25.179Z,0.90
2022-11-23T06:55:25.132Z,1.10
2022-11-23T07:00:25.092Z,1.00
2022-11-23T07:05:25.020Z,1.20
2022-11-23T07:10:24.965Z,1.20
2022-11-23T07:15:24.913Z,1.60
2022-11-23T07:20:24.892Z,1.60
2022-11-23T07:25:24.807Z,1.80
2022-11-23T07:30:29.193Z,1.40
2022-11-23T07:35:24.696Z,1.60
2022-11-23T07:40:24.663Z,1.40
2022-11-23T07:45:24.606Z,1.40
2022-11-23T07:50:24.527Z,1.80
2022-11-23T07:55:24.485Z,1.70
2022-11-23T08:00:24.580Z,1.50
2022-11-23T08:05:24.378Z,1.50
2022-11-23T08:10:24.339Z,2.00
2022-11-23T08:15:24.256Z,2.20
2022-11-23T08:20:24.318Z,2.10
2022-11-23T08:25:24.169Z,1.90
2022-11-23T08:30:24.164Z,1.60
2022-11-23T08:35:24.058Z,1.50
2022-11-23T08:40:25.855Z,1.40
2022-11-23T08:45:23.948Z,1.90
2022-11-23T08:50:24.024Z,1.80
2022-11-23T08:55:23.844Z,1.40
2022-11-23T09:00:23.809Z,1.30
2022-11-23T09:05:23.745Z,1.60
2022-11-23T09:10:23.754Z,1.80
2022-11-23T09:15:23.635Z,1.90
2022-11-23T09:20:23.600Z,1.30
2022-11-23T09:25:23.532Z,1.90
2022-11-23T09:30:23.478Z,1.90
2022-11-23T09:35:23.418Z,1.40
2022-11-23T09:40:23.386Z,1.70
2022-11-23T09:45:23.351Z,2.00
2022-11-23T09:50:23.259Z,1.60
2022-11-23T09:55:23.203Z,1.70
2022-11-23T10:00:23.187Z,1.60
2022-11-23T10:05:23.104Z,1.90
2022-11-23T10:10:23.040Z,1.40
2022-11-23T10:15:22.991Z,1.80
2022-11-23T10:20:23.020Z,1.80
2022-11-23T10:25:22.889Z,1.60
2022-11-23T10:30:22.829Z,1.70
2022-11-23T10:35:22.780Z,1.10
2022-11-23T10:40:22.748Z,2.10
2022-11-23T10:45:22.678Z,1.90
2022-11-23T10:50:22.645Z,1.60
2022-11-23T10:55:22.568Z,1.70
2022-11-23T11:00:27.217Z,1.70
2022-11-23T11:05:40.261Z,1.40
2022-11-23T11:10:23.404Z,1.40
2022-11-23T11:15:29.406Z,1.40
2022-11-23T11:20:22.297Z,1.60
2022-11-23T11:25:22.243Z,1.50
2022-11-23T11:30:22.193Z,1.40
2022-11-23T11:35:22.163Z,1.40
2022-11-23T11:40:22.089Z,1.50
2022-11-23T11:45:22.058Z,1.40
2022-11-23T11:50:23.917Z,1.50
2022-11-23T11:55:21.958Z,2.00
2022-11-23T12:00:21.909Z,1.60
2022-11-23T12:05:21.817Z,1.30
2022-11-23T12:10:21.765Z,1.70
2022-11-23T12:15:50.907Z,1.40
2022-11-23T12:20:22.660Z,1.70
2022-11-23T12:25:21.603Z,1.80
2022-11-23T12:30:21.556Z,1.60
2022-11-23T12:35:21.544Z,1.60
2022-11-23T12:40:21.449Z,1.50
2022-11-23T12:45:21.386Z,1.50
2022-11-23T12:50:21.340Z,1.40
2022-11-23T12:55:21.303Z,1.20
2022-11-23T13:00:21.239Z,1.10
2022-11-23T13:05:21.175Z,1.00
2022-11-23T13:10:21.121Z,1.00
2022-11-23T13:15:21.082Z,1.30
2022-11-23T13:20:21.023Z,1.70
2022-11-23T13:25:20.958Z,1.30
2022-11-23T13:30:20.904Z,1.30
2022-11-23T13:35:20.878Z,1.60
2022-11-23T13:40:20.808Z,1.10
2022-11-23T13:45:20.745Z,1.30
2022-11-23T13:50:20.703Z,1.50
2022-11-23T13:55:20.670Z,1.70
2022-11-23T14:00:20.586Z,1.70
2022-11-23T14:05:20.543Z,1.90
2022-11-23T14:10:20.483Z,1.60
2022-11-23T14:15:20.465Z,2.20
2022-11-23T14:20:20.371Z,1.90
2022-11-23T14:25:20.322Z,2.20
2022-11-23T14:30:20.265Z,1.80
2022-11-23T14:35:20.241Z,1.60
2022-11-23T14:40:20.165Z,1.60
2022-11-23T14:45:20.125Z,1.70
2022-11-23T14:50:20.056Z,2.10
2022-11-23T14:55:20.035Z,1.70
2022-11-23T15:00:19.953Z,1.60
2022-11-23T15:05:19.983Z,1.70
2022-11-23T15:10:19.856Z,1.30
2022-11-23T15:15:19.814Z,2.20
2022-11-23T15:20:19.745Z,1.30
2022-11-23T15:25:19.690Z,1.80
2022-11-23T15:30:19.720Z,1.30
2022-11-23T15:35:19.603Z,1.40
2022-11-23T15:40:19.524Z,1.50
2022-11-23T15:45:19.473Z,1.50
2022-11-23T15:50:19.418Z,1.20
2022-11-23T15:55:19.389Z,1.70
2022-11-23T16:00:19.316Z,1.40
2022-11-23T16:05:19.263Z,2.10
2022-11-23T16:10:19.211Z,1.60
2022-11-23T16:15:19.181Z,1.80
2022-11-23T16:20:19.100Z,1.60
2022-11-23T16:25:19.044Z,1.80
2022-11-23T16:30:19.032Z,1.70
2022-11-23T16:35:18.964Z,1.50
2022-11-23T16:40:18.888Z,1.60
2022-11-23T16:45:18.837Z,1.50
2022-11-23T16:50:18.781Z,2.00
2022-11-23T16:55:18.754Z,1.80
2022-11-23T17:00:18.693Z,1.80
2022-11-23T17:05:18.639Z,1.90
2022-11-23T17:10:18.627Z,1.70
2022-11-23T17:15:25.578Z,2.00
2022-11-23T17:20:18.489Z,1.80
2022-11-23T17:25:18.395Z,2.10
2022-11-23T17:30:18.358Z,1.70
2022-11-23T17:35:18.335Z,2.30
2022-11-23T17:40:18.231Z,1.70
2022-11-23T17:45:18.193Z,2.20
2022-11-23T17:50:18.191Z,2.00
2022-11-23T17:55:18.099Z,2.20
2022-11-23T18:00:18.056Z,2.00
2022-11-23T18:05:21.837Z,2.20
2022-11-23T18:10:18.142Z,1.90
2022-11-23T18:15:18.049Z,2.00
2022-11-23T18:20:18.054Z,1.70
2022-11-23T18:25:18.014Z,1.80
2022-11-23T18:30:17.722Z,1.80
2022-11-23T18:35:17.681Z,2.40
2022-11-23T18:40:17.608Z,2.20
2022-11-23T18:45:17.542Z,2.30
2022-11-23T18:50:17.501Z,1.70
2022-11-23T18:55:17.462Z,1.90
2022-11-23T19:00:17.373Z,1.70
2022-11-23T19:05:17.336Z,1.80
2022-11-23T19:10:17.288Z,1.90
2022-11-23T19:15:17.246Z,1.90
2022-11-23T19:20:17.174Z,1.70
2022-11-23T19:25:17.137Z,2.00
2022-11-23T19:30:17.051Z,1.80
2022-11-23T19:35:17.028Z,1.70
2022-11-23T19:40:17.078Z,1.80
2022-11-23T19:45:16.892Z,1.60
2022-11-23T19:50:16.851Z,1.70
2022-11-23T19:55:16.951Z,1.80
2022-11-23T20:00:16.728Z,1.90
2022-11-23T20:05:16.732Z,2.00
2022-11-23T20:10:16.642Z,2.10
2022-11-23T20:15:16.584Z,1.70
2022-11-23T20:20:16.525Z,2.20
2022-11-23T20:25:16.481Z,1.90
2022-11-23T20:30:16.408Z,2.10
2022-11-23T20:35:16.385Z,2.00
2022-11-23T20:40:16.323Z,2.10
2022-11-23T20:45:16.247Z,2.10
2022-11-23T20:50:16.206Z,2.30
2022-11-23T20:55:16.170Z,2.30
2022-11-23T21:00:16.087Z,2.20
2022-11-23T21:05:16.045Z,2.70
2022-11-23T21:10:15.995Z,2.30
2022-11-23T21:15:15.964Z,2.30
2022-11-23T21:20:15.886Z,2.60
2022-11-23T21:25:15.839Z,2.20
2022-11-23T21:30:15.778Z,2.40
2022-11-23T21:35:15.749Z,2.40
2022-11-23T21:40:15.671Z,2.70
2022-11-23T21:45:15.621Z,2.80
2022-11-23T21:50:15.567Z,2.30
2022-11-23T21:55:15.565Z,2.70
2022-11-23T22:00:15.461Z,2.70
2022-11-23T22:05:15.404Z,2.90
2022-11-23T22:10:15.353Z,2.50
2022-11-23T22:15:15.316Z,2.20
2022-11-23T22:20:15.258Z,2.30
2022-11-23T22:25:15.180Z,2.70
2022-11-23T22:30:15.140Z,2.80
2022-11-23T22:35:15.121Z,2.60
2022-11-23T22:40:15.020Z,2.30
2022-11-23T22:45:14.979Z,2.50
2022-11-23T22:50:14.937Z,2.20
2022-11-23T22:55:14.876Z,2.60
2022-11-23T23:00:14.824Z,2.60
2022-11-23T23:05:14.768Z,2.80
2022-11-23T23:10:14.713Z,2.90
2022-11-23T23:15:21.718Z,2.70
2022-11-23T23:20:14.604Z,2.50
2022-11-23T23:25:14.549Z,2.70
2022-11-23T23:30:14.528Z,3.20
2022-11-23T23:35:14.497Z,2.90
2022-11-23T23:40:14.396Z,2.90
2022-11-23T23:45:14.342Z,2.50
2022-11-23T23:50:14.296Z,2.40
2022-11-23T23:55:14.259Z,2.60
